sensor_id;sensor_type;location;lat;lon;timestamp;temperature;humidity
80232;DHT22;74189;42.124;24.752;2024-03-23T00:56:09;8.60;56.30
80232;DHT22;74189;42.124;24.752;2024-03-23T00:58:35;8.50;55.70
80232;DHT22;74189;42.124;24.752;2024-03-23T01:01:01;8.60;55.50
80232;DHT22;74189;42.124;24.752;2024-03-23T01:03:30;8.60;55.40
80232;DHT22;74189;42.124;24.752;2024-03-23T01:06:03;8.20;56.70
80232;DHT22;74189;42.124;24.752;2024-03-23T01:08:32;8.20;57.40
80232;DHT22;74189;42.124;24.752;2024-03-23T01:11:00;8.10;57.40
80232;DHT22;74189;42.124;24.752;2024-03-23T01:13:27;8.30;56.90
80232;DHT22;74189;42.124;24.752;2024-03-23T01:15:57;8.30;56.70
80232;DHT22;74189;42.124;24.752;2024-03-23T01:18:24;8.40;56.60
80232;DHT22;74189;42.124;24.752;2024-03-23T01:20:52;8.30;56.50
80232;DHT22;74189;42.124;24.752;2024-03-23T01:23:18;8.50;56.10
80232;DHT22;74189;42.124;24.752;2024-03-23T01:25:52;8.40;56.10
80232;DHT22;74189;42.124;24.752;2024-03-23T01:28:19;8.60;55.60
80232;DHT22;74189;42.124;24.752;2024-03-23T01:30:46;8.70;55.00
80232;DHT22;74189;42.124;24.752;2024-03-23T01:33:12;8.80;54.20
80232;DHT22;74189;42.124;24.752;2024-03-23T01:35:38;8.80;53.80
80232;DHT22;74189;42.124;24.752;2024-03-23T01:38:04;8.80;54.00
80232;DHT22;74189;42.124;24.752;2024-03-23T01:40:32;8.40;55.00
80232;DHT22;74189;42.124;24.752;2024-03-23T01:43:02;8.30;55.40
80232;DHT22;74189;42.124;24.752;2024-03-23T01:45:30;8.00;56.00
80232;DHT22;74189;42.124;24.752;2024-03-23T01:47:56;7.90;56.60
80232;DHT22;74189;42.124;24.752;2024-03-23T01:50:23;7.80;57.10
80232;DHT22;74189;42.124;24.752;2024-03-23T01:52:50;7.90;57.00
80232;DHT22;74189;42.124;24.752;2024-03-23T01:55:17;7.90;56.90
80232;DHT22;74189;42.124;24.752;2024-03-23T01:57:43;7.90;57.20
80232;DHT22;74189;42.124;24.752;2024-03-23T02:00:10;7.90;57.50
80232;DHT22;74189;42.124;24.752;2024-03-23T02:02:43;7.90;57.60
80232;DHT22;74189;42.124;24.752;2024-03-23T02:05:11;8.00;57.50
80232;DHT22;74189;42.124;24.752;2024-03-23T02:07:41;8.00;57.00
80232;DHT22;74189;42.124;24.752;2024-03-23T02:10:09;8.00;57.00
80232;DHT22;74189;42.124;24.752;2024-03-23T02:12:36;8.00;57.10
80232;DHT22;74189;42.124;24.752;2024-03-23T02:15:03;8.00;56.60
80232;DHT22;74189;42.124;24.752;2024-03-23T02:17:32;8.00;57.00
80232;DHT22;74189;42.124;24.752;2024-03-23T02:19:59;7.90;57.10
80232;DHT22;74189;42.124;24.752;2024-03-23T02:22:37;8.10;56.90
80232;DHT22;74189;42.124;24.752;2024-03-23T02:25:05;8.10;56.50
80232;DHT22;74189;42.124;24.752;2024-03-23T02:27:31;8.10;56.40
80232;DHT22;74189;42.124;24.752;2024-03-23T02:29:58;8.10;56.50
80232;DHT22;74189;42.124;24.752;2024-03-23T02:32:25;8.00;56.60
80232;DHT22;74189;42.124;24.752;2024-03-23T02:34:51;8.10;56.60
80232;DHT22;74189;42.124;24.752;2024-03-23T02:37:17;8.00;56.30
80232;DHT22;74189;42.124;24.752;2024-03-23T02:39:43;7.90;56.60
80232;DHT22;74189;42.124;24.752;2024-03-23T02:42:10;7.90;57.00
80232;DHT22;74189;42.124;24.752;2024-03-23T02:44:36;7.90;56.80
80232;DHT22;74189;42.124;24.752;2024-03-23T02:47:03;7.90;57.00
80232;DHT22;74189;42.124;24.752;2024-03-23T02:49:29;7.90;56.70
80232;DHT22;74189;42.124;24.752;2024-03-23T02:51:55;7.70;57.10
80232;DHT22;74189;42.124;24.752;2024-03-23T02:54:21;7.80;57.20
80232;DHT22;74189;42.124;24.752;2024-03-23T02:56:48;7.80;57.10
80232;DHT22;74189;42.124;24.752;2024-03-23T02:59:14;7.90;56.90
80232;DHT22;74189;42.124;24.752;2024-03-23T03:01:40;7.90;57.00
80232;DHT22;74189;42.124;24.752;2024-03-23T03:04:07;7.80;58.20
80232;DHT22;74189;42.124;24.752;2024-03-23T03:06:33;7.70;57.40
80232;DHT22;74189;42.124;24.752;2024-03-23T03:08:59;7.60;57.80
80232;DHT22;74189;42.124;24.752;2024-03-23T03:11:25;7.70;57.80
80232;DHT22;74189;42.124;24.752;2024-03-23T03:13:52;7.70;57.70
80232;DHT22;74189;42.124;24.752;2024-03-23T03:16:18;7.70;58.00
80232;DHT22;74189;42.124;24.752;2024-03-23T03:18:45;7.60;58.20
80232;DHT22;74189;42.124;24.752;2024-03-23T03:21:12;7.60;58.20
80232;DHT22;74189;42.124;24.752;2024-03-23T03:23:39;7.50;58.60
80232;DHT22;74189;42.124;24.752;2024-03-23T03:26:06;7.50;58.60
80232;DHT22;74189;42.124;24.752;2024-03-23T03:28:32;7.40;58.60
80232;DHT22;74189;42.124;24.752;2024-03-23T03:30:59;7.50;58.30
80232;DHT22;74189;42.124;24.752;2024-03-23T03:33:29;7.30;58.50
80232;DHT22;74189;42.124;24.752;2024-03-23T03:35:55;7.30;58.80
80232;DHT22;74189;42.124;24.752;2024-03-23T03:38:22;7.20;59.10
80232;DHT22;74189;42.124;24.752;2024-03-23T03:40:48;7.20;58.90
80232;DHT22;74189;42.124;24.752;2024-03-23T03:43:14;7.20;58.70
80232;DHT22;74189;42.124;24.752;2024-03-23T03:45:40;7.10;58.60
80232;DHT22;74189;42.124;24.752;2024-03-23T03:48:07;6.80;59.30
80232;DHT22;74189;42.124;24.752;2024-03-23T03:50:34;6.60;60.10
80232;DHT22;74189;42.124;24.752;2024-03-23T03:53:00;6.70;60.50
80232;DHT22;74189;42.124;24.752;2024-03-23T03:55:26;6.80;60.20
80232;DHT22;74189;42.124;24.752;2024-03-23T03:58:02;6.90;59.80
80232;DHT22;74189;42.124;24.752;2024-03-23T04:00:34;6.90;60.00
80232;DHT22;74189;42.124;24.752;2024-03-23T04:03:02;6.90;58.70
80232;DHT22;74189;42.124;24.752;2024-03-23T04:05:28;6.90;58.20
80232;DHT22;74189;42.124;24.752;2024-03-23T04:07:55;6.70;58.30
80232;DHT22;74189;42.124;24.752;2024-03-23T04:10:21;6.70;58.70
80232;DHT22;74189;42.124;24.752;2024-03-23T04:12:48;6.50;59.30
80232;DHT22;74189;42.124;24.752;2024-03-23T04:15:14;6.40;60.00
80232;DHT22;74189;42.124;24.752;2024-03-23T04:17:41;6.20;60.70
80232;DHT22;74189;42.124;24.752;2024-03-23T04:20:09;6.20;60.60
80232;DHT22;74189;42.124;24.752;2024-03-23T04:22:37;6.00;60.90
80232;DHT22;74189;42.124;24.752;2024-03-23T04:25:04;5.80;61.70
80232;DHT22;74189;42.124;24.752;2024-03-23T04:27:41;5.60;62.50
80232;DHT22;74189;42.124;24.752;2024-03-23T04:30:08;5.30;63.60
80232;DHT22;74189;42.124;24.752;2024-03-23T04:32:37;5.20;64.20
80232;DHT22;74189;42.124;24.752;2024-03-23T04:35:04;5.10;64.30
80232;DHT22;74189;42.124;24.752;2024-03-23T04:37:38;5.00;64.90
80232;DHT22;74189;42.124;24.752;2024-03-23T04:40:08;4.80;65.70
80232;DHT22;74189;42.124;24.752;2024-03-23T04:42:35;4.80;65.70
80232;DHT22;74189;42.124;24.752;2024-03-23T04:45:01;5.00;65.50
80232;DHT22;74189;42.124;24.752;2024-03-23T04:47:27;5.10;65.00
80232;DHT22;74189;42.124;24.752;2024-03-23T04:49:54;5.30;63.80
80232;DHT22;74189;42.124;24.752;2024-03-23T04:52:20;5.10;64.00
80232;DHT22;74189;42.124;24.752;2024-03-23T04:54:46;5.10;64.50
80232;DHT22;74189;42.124;24.752;2024-03-23T04:57:12;5.20;64.30
80232;DHT22;74189;42.124;24.752;2024-03-23T04:59:39;5.30;64.00
80232;DHT22;74189;42.124;24.752;2024-03-23T05:02:05;5.10;64.00
80232;DHT22;74189;42.124;24.752;2024-03-23T05:04:31;5.10;63.60
80232;DHT22;74189;42.124;24.752;2024-03-23T05:06:58;5.10;64.00
80232;DHT22;74189;42.124;24.752;2024-03-23T05:09:25;5.00;64.40
80232;DHT22;74189;42.124;24.752;2024-03-23T05:11:56;5.20;64.50
80232;DHT22;74189;42.124;24.752;2024-03-23T05:14:23;5.40;62.80
80232;DHT22;74189;42.124;24.752;2024-03-23T05:16:49;5.60;62.70
80232;DHT22;74189;42.124;24.752;2024-03-23T05:19:15;5.50;62.10
80232;DHT22;74189;42.124;24.752;2024-03-23T05:21:42;5.50;62.70
80232;DHT22;74189;42.124;24.752;2024-03-23T05:24:08;5.40;63.20
80232;DHT22;74189;42.124;24.752;2024-03-23T05:26:35;5.60;62.60
80232;DHT22;74189;42.124;24.752;2024-03-23T05:29:02;5.60;61.80
80232;DHT22;74189;42.124;24.752;2024-03-23T05:31:31;5.70;61.30
80232;DHT22;74189;42.124;24.752;2024-03-23T05:33:58;5.50;62.00
80232;DHT22;74189;42.124;24.752;2024-03-23T05:36:24;5.60;61.60
80232;DHT22;74189;42.124;24.752;2024-03-23T05:38:51;5.70;61.10
80232;DHT22;74189;42.124;24.752;2024-03-23T05:41:17;5.90;61.00
80232;DHT22;74189;42.124;24.752;2024-03-23T05:43:43;6.10;60.70
80232;DHT22;74189;42.124;24.752;2024-03-23T05:46:10;6.20;60.30
80232;DHT22;74189;42.124;24.752;2024-03-23T05:48:36;6.40;59.40
80232;DHT22;74189;42.124;24.752;2024-03-23T05:51:02;6.40;58.90
80232;DHT22;74189;42.124;24.752;2024-03-23T05:53:29;6.60;58.80
80232;DHT22;74189;42.124;24.752;2024-03-23T05:56:03;6.70;58.20
80232;DHT22;74189;42.124;24.752;2024-03-23T05:58:30;6.90;57.10
80232;DHT22;74189;42.124;24.752;2024-03-23T06:00:58;7.00;57.10
80232;DHT22;74189;42.124;24.752;2024-03-23T06:03:25;7.10;56.60
80232;DHT22;74189;42.124;24.752;2024-03-23T06:05:55;7.10;56.40
80232;DHT22;74189;42.124;24.752;2024-03-23T06:08:22;7.20;56.60
80232;DHT22;74189;42.124;24.752;2024-03-23T06:10:51;7.10;56.60
80232;DHT22;74189;42.124;24.752;2024-03-23T06:13:17;7.10;57.00
80232;DHT22;74189;42.124;24.752;2024-03-23T06:15:50;7.20;56.40
80232;DHT22;74189;42.124;24.752;2024-03-23T06:18:16;7.30;56.20
80232;DHT22;74189;42.124;24.752;2024-03-23T06:20:43;7.40;55.90
80232;DHT22;74189;42.124;24.752;2024-03-23T06:23:09;7.30;55.90
80232;DHT22;74189;42.124;24.752;2024-03-23T06:25:35;7.40;56.30
80232;DHT22;74189;42.124;24.752;2024-03-23T06:28:01;7.50;55.60
80232;DHT22;74189;42.124;24.752;2024-03-23T06:30:29;7.90;54.00
80232;DHT22;74189;42.124;24.752;2024-03-23T06:32:55;7.80;53.90
80232;DHT22;74189;42.124;24.752;2024-03-23T06:35:22;7.70;54.40
80232;DHT22;74189;42.124;24.752;2024-03-23T06:37:48;7.70;54.80
80232;DHT22;74189;42.124;24.752;2024-03-23T06:40:17;7.80;55.00
80232;DHT22;74189;42.124;24.752;2024-03-23T06:42:43;7.80;54.80
80232;DHT22;74189;42.124;24.752;2024-03-23T06:45:09;8.00;54.50
80232;DHT22;74189;42.124;24.752;2024-03-23T06:47:36;8.10;54.10
80232;DHT22;74189;42.124;24.752;2024-03-23T06:50:03;8.40;53.30
80232;DHT22;74189;42.124;24.752;2024-03-23T06:52:30;8.60;52.70
80232;DHT22;74189;42.124;24.752;2024-03-23T06:54:59;8.60;52.60
80232;DHT22;74189;42.124;24.752;2024-03-23T06:57:25;8.60;52.50
80232;DHT22;74189;42.124;24.752;2024-03-23T06:59:54;8.70;52.10
80232;DHT22;74189;42.124;24.752;2024-03-23T07:02:20;8.90;52.10
80232;DHT22;74189;42.124;24.752;2024-03-23T07:04:47;8.90;51.90
80232;DHT22;74189;42.124;24.752;2024-03-23T07:07:13;9.00;52.10
80232;DHT22;74189;42.124;24.752;2024-03-23T07:09:39;9.00;52.00
80232;DHT22;74189;42.124;24.752;2024-03-23T07:12:05;9.10;51.60
80232;DHT22;74189;42.124;24.752;2024-03-23T07:14:34;9.40;50.70
80232;DHT22;74189;42.124;24.752;2024-03-23T07:17:01;9.30;50.60
80232;DHT22;74189;42.124;24.752;2024-03-23T07:19:27;9.40;50.90
80232;DHT22;74189;42.124;24.752;2024-03-23T07:21:54;9.50;50.40
80232;DHT22;74189;42.124;24.752;2024-03-23T07:24:20;9.70;49.90
80232;DHT22;74189;42.124;24.752;2024-03-23T07:26:47;9.70;49.40
80232;DHT22;74189;42.124;24.752;2024-03-23T07:29:13;9.80;49.40
80232;DHT22;74189;42.124;24.752;2024-03-23T07:31:40;9.60;49.40
80232;DHT22;74189;42.124;24.752;2024-03-23T07:34:14;9.60;49.60
80232;DHT22;74189;42.124;24.752;2024-03-23T07:36:41;9.80;49.20
80232;DHT22;74189;42.124;24.752;2024-03-23T07:39:07;9.90;48.10
80232;DHT22;74189;42.124;24.752;2024-03-23T07:41:36;10.00;48.30
80232;DHT22;74189;42.124;24.752;2024-03-23T07:44:02;9.90;48.50
80232;DHT22;74189;42.124;24.752;2024-03-23T07:46:32;10.00;48.40
80232;DHT22;74189;42.124;24.752;2024-03-23T07:48:58;10.10;47.30
80232;DHT22;74189;42.124;24.752;2024-03-23T07:51:25;10.10;47.50
80232;DHT22;74189;42.124;24.752;2024-03-23T07:53:51;10.10;47.30
80232;DHT22;74189;42.124;24.752;2024-03-23T07:56:18;10.10;47.30
80232;DHT22;74189;42.124;24.752;2024-03-23T07:58:46;10.00;47.40
80232;DHT22;74189;42.124;24.752;2024-03-23T08:01:16;10.00;47.70
80232;DHT22;74189;42.124;24.752;2024-03-23T08:03:44;10.10;47.50
80232;DHT22;74189;42.124;24.752;2024-03-23T08:06:16;10.10;47.40
80232;DHT22;74189;42.124;24.752;2024-03-23T08:08:45;10.30;47.00
80232;DHT22;74189;42.124;24.752;2024-03-23T08:11:12;10.30;47.00
80232;DHT22;74189;42.124;24.752;2024-03-23T08:13:40;10.30;47.00
80232;DHT22;74189;42.124;24.752;2024-03-23T08:16:06;10.70;46.50
80232;DHT22;74189;42.124;24.752;2024-03-23T08:18:33;10.50;46.20
80232;DHT22;74189;42.124;24.752;2024-03-23T08:21:00;10.80;45.70
80232;DHT22;74189;42.124;24.752;2024-03-23T08:23:34;10.90;45.40
80232;DHT22;74189;42.124;24.752;2024-03-23T08:26:06;10.90;45.50
80232;DHT22;74189;42.124;24.752;2024-03-23T08:28:33;10.80;45.50
80232;DHT22;74189;42.124;24.752;2024-03-23T08:31:06;11.00;47.30
80232;DHT22;74189;42.124;24.752;2024-03-23T08:33:33;11.10;45.60
80232;DHT22;74189;42.124;24.752;2024-03-23T08:36:07;11.30;44.60
80232;DHT22;74189;42.124;24.752;2024-03-23T08:38:34;11.70;43.60
80232;DHT22;74189;42.124;24.752;2024-03-23T08:41:01;11.60;42.90
80232;DHT22;74189;42.124;24.752;2024-03-23T08:43:38;11.10;43.50
80232;DHT22;74189;42.124;24.752;2024-03-23T08:46:13;11.20;43.90
80232;DHT22;74189;42.124;24.752;2024-03-23T08:48:44;11.20;43.60
80232;DHT22;74189;42.124;24.752;2024-03-23T08:51:12;11.40;43.60
80232;DHT22;74189;42.124;24.752;2024-03-23T08:53:39;11.50;43.50
80232;DHT22;74189;42.124;24.752;2024-03-23T08:56:07;11.70;42.60
80232;DHT22;74189;42.124;24.752;2024-03-23T08:58:35;11.50;42.10
80232;DHT22;74189;42.124;24.752;2024-03-23T09:01:10;11.50;42.40
80232;DHT22;74189;42.124;24.752;2024-03-23T09:03:37;11.60;42.30
80232;DHT22;74189;42.124;24.752;2024-03-23T09:06:12;11.70;42.90
80232;DHT22;74189;42.124;24.752;2024-03-23T09:08:39;12.00;41.30
80232;DHT22;74189;42.124;24.752;2024-03-23T09:11:08;12.10;41.80
80232;DHT22;74189;42.124;24.752;2024-03-23T09:13:35;12.30;42.70
80232;DHT22;74189;42.124;24.752;2024-03-23T09:16:02;12.40;41.20
80232;DHT22;74189;42.124;24.752;2024-03-23T09:18:31;12.40;40.70
80232;DHT22;74189;42.124;24.752;2024-03-23T09:20:58;12.10;40.90
80232;DHT22;74189;42.124;24.752;2024-03-23T09:23:24;12.00;42.40
80232;DHT22;74189;42.124;24.752;2024-03-23T09:25:50;12.20;42.30
80232;DHT22;74189;42.124;24.752;2024-03-23T09:28:17;12.30;42.10
80232;DHT22;74189;42.124;24.752;2024-03-23T09:30:43;12.60;41.00
80232;DHT22;74189;42.124;24.752;2024-03-23T09:33:13;12.70;40.80
80232;DHT22;74189;42.124;24.752;2024-03-23T09:35:43;12.80;41.10
80232;DHT22;74189;42.124;24.752;2024-03-23T09:38:10;13.00;41.00
80232;DHT22;74189;42.124;24.752;2024-03-23T09:40:43;13.00;39.80
80232;DHT22;74189;42.124;24.752;2024-03-23T09:43:09;13.10;40.40
80232;DHT22;74189;42.124;24.752;2024-03-23T09:45:39;13.20;39.80
80232;DHT22;74189;42.124;24.752;2024-03-23T09:48:09;13.20;39.80
80232;DHT22;74189;42.124;24.752;2024-03-23T09:50:40;13.20;40.60
80232;DHT22;74189;42.124;24.752;2024-03-23T09:53:13;13.60;41.50
80232;DHT22;74189;42.124;24.752;2024-03-23T09:55:40;13.60;39.30
80232;DHT22;74189;42.124;24.752;2024-03-23T09:58:07;13.60;39.90
80232;DHT22;74189;42.124;24.752;2024-03-23T10:00:34;13.70;40.20
80232;DHT22;74189;42.124;24.752;2024-03-23T10:03:01;13.60;40.10
80232;DHT22;74189;42.124;24.752;2024-03-23T10:05:29;13.40;41.00
80232;DHT22;74189;42.124;24.752;2024-03-23T10:07:57;13.40;40.50
80232;DHT22;74189;42.124;24.752;2024-03-23T10:10:25;13.40;40.30
80232;DHT22;74189;42.124;24.752;2024-03-23T10:12:55;13.50;40.70
80232;DHT22;74189;42.124;24.752;2024-03-23T10:15:25;13.60;40.60
80232;DHT22;74189;42.124;24.752;2024-03-23T10:17:52;13.50;40.10
80232;DHT22;74189;42.124;24.752;2024-03-23T10:20:22;13.70;40.10
80232;DHT22;74189;42.124;24.752;2024-03-23T10:22:50;14.00;39.70
80232;DHT22;74189;42.124;24.752;2024-03-23T10:25:23;13.90;39.50
80232;DHT22;74189;42.124;24.752;2024-03-23T10:27:59;13.90;39.50
80232;DHT22;74189;42.124;24.752;2024-03-23T10:30:26;13.90;38.90
80232;DHT22;74189;42.124;24.752;2024-03-23T10:33:12;13.80;38.00
80232;DHT22;74189;42.124;24.752;2024-03-23T10:35:39;13.80;37.90
80232;DHT22;74189;42.124;24.752;2024-03-23T10:38:06;13.90;38.70
80232;DHT22;74189;42.124;24.752;2024-03-23T10:40:36;13.90;39.20
80232;DHT22;74189;42.124;24.752;2024-03-23T10:43:06;14.00;38.50
80232;DHT22;74189;42.124;24.752;2024-03-23T10:45:34;14.50;37.70
80232;DHT22;74189;42.124;24.752;2024-03-23T10:48:01;14.50;37.40
80232;DHT22;74189;42.124;24.752;2024-03-23T10:50:28;14.60;36.70
80232;DHT22;74189;42.124;24.752;2024-03-23T10:52:58;14.60;36.00
80232;DHT22;74189;42.124;24.752;2024-03-23T10:55:25;14.80;36.00
80232;DHT22;74189;42.124;24.752;2024-03-23T10:57:56;14.90;36.90
80232;DHT22;74189;42.124;24.752;2024-03-23T11:00:25;15.00;37.20
80232;DHT22;74189;42.124;24.752;2024-03-23T11:02:54;14.90;36.60
80232;DHT22;74189;42.124;24.752;2024-03-23T11:07:53;14.90;37.00
80232;DHT22;74189;42.124;24.752;2024-03-23T11:10:32;14.90;37.00
80232;DHT22;74189;42.124;24.752;2024-03-23T11:13:23;15.00;37.10
80232;DHT22;74189;42.124;24.752;2024-03-23T11:15:49;15.10;36.50
80232;DHT22;74189;42.124;24.752;2024-03-23T11:18:21;15.30;36.00
80232;DHT22;74189;42.124;24.752;2024-03-23T11:20:47;15.50;35.40
80232;DHT22;74189;42.124;24.752;2024-03-23T11:23:29;15.70;34.50
80232;DHT22;74189;42.124;24.752;2024-03-23T11:25:55;15.70;34.80
80232;DHT22;74189;42.124;24.752;2024-03-23T11:28:27;15.80;34.80
80232;DHT22;74189;42.124;24.752;2024-03-23T11:30:53;15.90;34.30
80232;DHT22;74189;42.124;24.752;2024-03-23T11:33:22;15.90;34.40
80232;DHT22;74189;42.124;24.752;2024-03-23T11:35:49;16.00;34.40
80232;DHT22;74189;42.124;24.752;2024-03-23T11:38:18;16.00;34.00
80232;DHT22;74189;42.124;24.752;2024-03-23T11:40:46;15.90;33.70
80232;DHT22;74189;42.124;24.752;2024-03-23T11:43:14;16.10;33.20
80232;DHT22;74189;42.124;24.752;2024-03-23T11:45:51;16.20;33.00
80232;DHT22;74189;42.124;24.752;2024-03-23T11:48:20;16.10;32.70
80232;DHT22;74189;42.124;24.752;2024-03-23T11:50:48;16.20;32.90
80232;DHT22;74189;42.124;24.752;2024-03-23T11:53:20;16.20;32.50
80232;DHT22;74189;42.124;24.752;2024-03-23T11:55:59;16.20;32.60
80232;DHT22;74189;42.124;24.752;2024-03-23T11:58:27;16.20;33.00
80232;DHT22;74189;42.124;24.752;2024-03-23T12:01:00;16.20;32.20
80232;DHT22;74189;42.124;24.752;2024-03-23T12:03:31;16.10;31.60
80232;DHT22;74189;42.124;24.752;2024-03-23T12:06:03;16.00;32.20
80232;DHT22;74189;42.124;24.752;2024-03-23T12:08:33;16.10;32.50
80232;DHT22;74189;42.124;24.752;2024-03-23T12:11:11;16.30;32.10
80232;DHT22;74189;42.124;24.752;2024-03-23T12:13:42;16.40;32.60
80232;DHT22;74189;42.124;24.752;2024-03-23T12:16:20;16.80;32.40
80232;DHT22;74189;42.124;24.752;2024-03-23T12:18:47;16.70;32.10
80232;DHT22;74189;42.124;24.752;2024-03-23T12:21:15;16.60;31.50
80232;DHT22;74189;42.124;24.752;2024-03-23T12:23:43;16.40;31.60
80232;DHT22;74189;42.124;24.752;2024-03-23T12:26:14;16.50;31.70
80232;DHT22;74189;42.124;24.752;2024-03-23T12:28:41;16.80;30.70
80232;DHT22;74189;42.124;24.752;2024-03-23T12:31:08;16.60;31.10
80232;DHT22;74189;42.124;24.752;2024-03-23T12:33:34;16.50;31.50
80232;DHT22;74189;42.124;24.752;2024-03-23T12:36:00;16.80;30.10
80232;DHT22;74189;42.124;24.752;2024-03-23T12:38:26;16.80;30.60
80232;DHT22;74189;42.124;24.752;2024-03-23T12:40:53;16.90;30.90
80232;DHT22;74189;42.124;24.752;2024-03-23T12:43:19;17.00;30.20
80232;DHT22;74189;42.124;24.752;2024-03-23T12:45:49;17.00;30.40
80232;DHT22;74189;42.124;24.752;2024-03-23T12:48:18;16.80;30.10
80232;DHT22;74189;42.124;24.752;2024-03-23T12:50:44;16.50;30.40
80232;DHT22;74189;42.124;24.752;2024-03-23T12:53:11;16.50;30.10
80232;DHT22;74189;42.124;24.752;2024-03-23T12:55:37;16.70;29.80
80232;DHT22;74189;42.124;24.752;2024-03-23T12:58:04;16.90;29.30
80232;DHT22;74189;42.124;24.752;2024-03-23T13:00:30;17.20;28.90
80232;DHT22;74189;42.124;24.752;2024-03-23T13:02:57;17.40;29.10
80232;DHT22;74189;42.124;24.752;2024-03-23T13:05:23;17.30;29.00
80232;DHT22;74189;42.124;24.752;2024-03-23T13:07:49;17.30;29.10
80232;DHT22;74189;42.124;24.752;2024-03-23T13:10:16;17.60;28.90
80232;DHT22;74189;42.124;24.752;2024-03-23T13:12:42;17.50;29.00
80232;DHT22;74189;42.124;24.752;2024-03-23T13:15:09;17.40;28.80
80232;DHT22;74189;42.124;24.752;2024-03-23T13:17:35;17.50;28.10
80232;DHT22;74189;42.124;24.752;2024-03-23T13:20:01;17.50;27.60
80232;DHT22;74189;42.124;24.752;2024-03-23T13:22:29;17.50;27.30
80232;DHT22;74189;42.124;24.752;2024-03-23T13:24:56;17.50;27.30
80232;DHT22;74189;42.124;24.752;2024-03-23T13:27:22;17.50;27.60
80232;DHT22;74189;42.124;24.752;2024-03-23T13:29:48;17.50;28.10
80232;DHT22;74189;42.124;24.752;2024-03-23T13:32:19;17.40;27.70
80232;DHT22;74189;42.124;24.752;2024-03-23T13:34:45;17.20;27.90
80232;DHT22;74189;42.124;24.752;2024-03-23T13:37:11;17.30;27.60
80232;DHT22;74189;42.124;24.752;2024-03-23T13:39:38;17.30;28.30
80232;DHT22;74189;42.124;24.752;2024-03-23T13:42:04;17.10;29.10
80232;DHT22;74189;42.124;24.752;2024-03-23T13:44:30;17.30;28.80
80232;DHT22;74189;42.124;24.752;2024-03-23T13:47:00;17.40;28.70
80232;DHT22;74189;42.124;24.752;2024-03-23T13:49:27;17.70;27.60
80232;DHT22;74189;42.124;24.752;2024-03-23T13:51:57;17.40;27.40
80232;DHT22;74189;42.124;24.752;2024-03-23T13:54:25;17.20;27.70
80232;DHT22;74189;42.124;24.752;2024-03-23T13:56:52;17.10;28.10
80232;DHT22;74189;42.124;24.752;2024-03-23T13:59:18;17.30;27.70
80232;DHT22;74189;42.124;24.752;2024-03-23T14:01:45;17.50;27.60
80232;DHT22;74189;42.124;24.752;2024-03-23T14:04:14;17.70;27.00
80232;DHT22;74189;42.124;24.752;2024-03-23T14:06:43;17.70;26.80
80232;DHT22;74189;42.124;24.752;2024-03-23T14:09:12;17.50;27.00
80232;DHT22;74189;42.124;24.752;2024-03-23T14:11:38;17.60;27.20
80232;DHT22;74189;42.124;24.752;2024-03-23T14:14:06;17.80;26.70
80232;DHT22;74189;42.124;24.752;2024-03-23T14:16:32;18.00;26.20
80232;DHT22;74189;42.124;24.752;2024-03-23T14:18:59;18.00;26.60
80232;DHT22;74189;42.124;24.752;2024-03-23T14:21:25;18.00;26.60
80232;DHT22;74189;42.124;24.752;2024-03-23T14:23:51;18.10;26.80
80232;DHT22;74189;42.124;24.752;2024-03-23T14:26:18;18.00;27.40
80232;DHT22;74189;42.124;24.752;2024-03-23T14:28:44;18.10;27.80
80232;DHT22;74189;42.124;24.752;2024-03-23T14:31:11;18.10;27.10
80232;DHT22;74189;42.124;24.752;2024-03-23T14:33:40;18.20;26.90
80232;DHT22;74189;42.124;24.752;2024-03-23T14:36:13;18.30;27.50
80232;DHT22;74189;42.124;24.752;2024-03-23T14:38:40;18.40;28.00
80232;DHT22;74189;42.124;24.752;2024-03-23T14:41:06;18.20;28.10
80232;DHT22;74189;42.124;24.752;2024-03-23T14:43:32;18.10;28.00
80232;DHT22;74189;42.124;24.752;2024-03-23T14:46:12;18.00;27.90
80232;DHT22;74189;42.124;24.752;2024-03-23T14:48:39;18.20;27.30
80232;DHT22;74189;42.124;24.752;2024-03-23T14:51:06;18.00;26.80
80232;DHT22;74189;42.124;24.752;2024-03-23T14:53:39;18.00;27.00
80232;DHT22;74189;42.124;24.752;2024-03-23T14:56:07;17.90;26.40
80232;DHT22;74189;42.124;24.752;2024-03-23T14:58:36;18.00;25.80
80232;DHT22;74189;42.124;24.752;2024-03-23T15:01:06;17.90;25.50
80232;DHT22;74189;42.124;24.752;2024-03-23T15:03:39;17.80;25.30
80232;DHT22;74189;42.124;24.752;2024-03-23T15:06:06;17.60;25.50
80232;DHT22;74189;42.124;24.752;2024-03-23T15:08:32;18.00;25.00
80232;DHT22;74189;42.124;24.752;2024-03-23T15:11:00;18.00;24.70
80232;DHT22;74189;42.124;24.752;2024-03-23T15:13:26;18.00;24.80
80232;DHT22;74189;42.124;24.752;2024-03-23T15:15:53;18.10;25.30
80232;DHT22;74189;42.124;24.752;2024-03-23T15:18:19;18.10;26.20
80232;DHT22;74189;42.124;24.752;2024-03-23T15:20:59;17.90;26.80
80232;DHT22;74189;42.124;24.752;2024-03-23T15:23:32;17.80;27.20
80232;DHT22;74189;42.124;24.752;2024-03-23T15:26:01;17.70;27.60
80232;DHT22;74189;42.124;24.752;2024-03-23T15:28:29;17.50;27.50
80232;DHT22;74189;42.124;24.752;2024-03-23T15:31:08;17.50;27.80
80232;DHT22;74189;42.124;24.752;2024-03-23T15:33:35;17.40;28.00
80232;DHT22;74189;42.124;24.752;2024-03-23T15:36:02;17.60;28.20
80232;DHT22;74189;42.124;24.752;2024-03-23T15:38:31;17.50;27.90
80232;DHT22;74189;42.124;24.752;2024-03-23T15:40:57;17.40;27.60
80232;DHT22;74189;42.124;24.752;2024-03-23T15:43:24;17.40;27.60
80232;DHT22;74189;42.124;24.752;2024-03-23T15:45:57;17.50;27.60
80232;DHT22;74189;42.124;24.752;2024-03-23T15:48:28;17.30;27.40
80232;DHT22;74189;42.124;24.752;2024-03-23T15:50:55;17.30;27.40
80232;DHT22;74189;42.124;24.752;2024-03-23T15:53:23;17.30;27.30
80232;DHT22;74189;42.124;24.752;2024-03-23T15:55:59;17.40;27.00
80232;DHT22;74189;42.124;24.752;2024-03-23T15:58:26;17.30;26.60
80232;DHT22;74189;42.124;24.752;2024-03-23T16:03:23;17.10;26.70
80232;DHT22;74189;42.124;24.752;2024-03-23T16:05:54;17.20;26.60
80232;DHT22;74189;42.124;24.752;2024-03-23T16:08:21;17.20;26.90
80232;DHT22;74189;42.124;24.752;2024-03-23T16:10:47;17.30;27.00
80232;DHT22;74189;42.124;24.752;2024-03-23T16:13:14;17.20;27.40
80232;DHT22;74189;42.124;24.752;2024-03-23T16:15:40;17.20;27.70
80232;DHT22;74189;42.124;24.752;2024-03-23T16:18:07;16.90;27.90
80232;DHT22;74189;42.124;24.752;2024-03-23T16:20:33;16.80;28.70
80232;DHT22;74189;42.124;24.752;2024-03-23T16:23:00;16.80;29.00
80232;DHT22;74189;42.124;24.752;2024-03-23T16:25:26;16.70;29.30
80232;DHT22;74189;42.124;24.752;2024-03-23T16:27:53;16.70;29.50